This is the latest recevied weather packets stored in our database for station/object IZ4MEH-10. If no packets are shown the sender has not sent any weather packets the latest 10 day(s).
| Time | Temp. | Humidity | Pressure | Rain* | Wind** | Luminosity | Snow |
|---|---|---|---|---|---|---|---|
| 1777547226 | 21.11° C | 38% | 1022 hPa | - | - | - | - |
| 1777545425 | 24.44° C | 30% | 1022.3 hPa | - | - | - | - |
| 1777543624 | 25.56° C | 32% | 1022.2 hPa | - | - | - | - |
| 1777541823 | 26.11° C | 33% | 1022.2 hPa | - | - | - | - |
| 1777540021 | 25° C | 34% | 1022.5 hPa | - | - | - | - |
| 1777538220 | 25° C | 33% | 1022.3 hPa | - | - | - | - |
| 1777536419 | 23.33° C | 37% | 1022.2 hPa | - | - | - | - |
| 1777534618 | 23.89° C | 37% | 1022.1 hPa | - | - | - | - |
| 1777532817 | 18.89° C | 47% | 1022 hPa | - | - | - | - |
| 1777531015 | 21.11° C | 43% | 1021.9 hPa | - | - | - | - |
| 1777529213 | 13.89° C | 62% | 1021.5 hPa | - | - | - | - |
| 1777527413 | 15.56° C | 58% | 1021.2 hPa | - | - | - | - |
| 1777525611 | 16.11° C | 63% | 1020.9 hPa | - | - | - | - |
| 1777523809 | 12.78° C | 73% | 1020.6 hPa | - | - | - | - |
| 1777522008 | 12.22° C | 81% | 1020.4 hPa | - | - | - | - |
| 1777520207 | 12.78° C | 82% | 1020.1 hPa | - | - | - | - |
| 1777518405 | 12.78° C | 83% | 1019.9 hPa | - | - | - | - |
| 1777516603 | 12.78° C | 83% | 1019.9 hPa | - | - | - | - |
| 1777514802 | 12.78° C | 88% | 1019.9 hPa | - | - | - | - |
| 1777513001 | 14.44° C | 76% | 1019.8 hPa | - | - | - | - |
| 1777511199 | 14.44° C | 77% | 1019.8 hPa | - | - | - | - |
| 1777509398 | 14.44° C | 77% | 1019.6 hPa | - | - | - | - |
| 1777507597 | 15° C | 75% | 1019.5 hPa | - | - | - | - |
| 1777505796 | 15° C | 73% | 1019.2 hPa | - | - | - | - |
| 1777503994 | 15° C | 73% | 1018.8 hPa | - | - | - | - |
* Rain since midnight (hover to see other rain measurements)
** Current wind speed in m/s (hover to see current wind gust speed)